Time;durP1;ratioP1;P1;durP2;ratioP2;P2;SDS_P1;SDS_P2;PMS_P1;PMS_P2;Temp;Humidity;BMP_temperature;BMP_pressure;BME280_temperature;BME280_humidity;BME280_pressure;Samples;Min_cycle;Max_cycle;Signal;HPM_P1;HPM_P2
2021/11/01 00:00:25;;;;;;;25.50;3.73;;;12.50;99.90;;;;;;5071152;28;21048;-75
2021/11/01 00:02:51;;;;;;;27.35;3.78;;;12.40;99.90;;;;;;5097181;28;20409;-74
2021/11/01 00:05:18;;;;;;;22.33;3.87;;;12.40;99.90;;;;;;5075318;28;20500;-74
2021/11/01 00:07:44;;;;;;;23.50;3.90;;;12.40;99.90;;;;;;5087863;28;20416;-74
2021/11/01 00:10:11;;;;;;;24.25;3.78;;;12.50;99.90;;;;;;5090864;28;20405;-74
2021/11/01 00:12:38;;;;;;;24.08;3.75;;;12.50;99.90;;;;;;5094074;28;20412;-74
2021/11/01 00:15:04;;;;;;;22.45;3.63;;;12.50;99.90;;;;;;5084832;28;20418;-75
2021/11/01 00:17:30;;;;;;;21.33;3.53;;;12.50;99.90;;;;;;5089457;28;20474;-74
2021/11/01 00:19:56;;;;;;;23.05;3.80;;;12.50;99.90;;;;;;5076402;28;20433;-73
2021/11/01 00:22:24;;;;;;;21.77;3.80;;;12.50;99.90;;;;;;5073660;28;21138;-75
2021/11/01 00:24:50;;;;;;;22.92;3.80;;;12.50;99.90;;;;;;5086660;28;20420;-75
2021/11/01 00:27:17;;;;;;;22.52;3.60;;;12.50;99.90;;;;;;5090688;28;20801;-74
2021/11/01 00:29:43;;;;;;;25.08;3.95;;;12.50;99.90;;;;;;5097225;28;20393;-75
2021/11/01 00:32:10;;;;;;;22.42;4.15;;;12.40;99.90;;;;;;5089064;28;20486;-73
2021/11/01 00:34:35;;;;;;;23.00;3.58;;;12.40;99.90;;;;;;5097909;28;20404;-75
2021/11/01 00:37:01;;;;;;;23.83;3.83;;;12.30;99.90;;;;;;5071096;28;20414;-74
2021/11/01 00:39:28;;;;;;;25.95;4.80;;;12.30;99.90;;;;;;5094638;28;20402;-76
2021/11/01 00:41:53;;;;;;;25.25;3.90;;;12.30;99.90;;;;;;5085404;28;20398;-75
2021/11/01 00:44:19;;;;;;;24.13;4.23;;;12.30;99.90;;;;;;5091457;28;20912;-75
2021/11/01 00:46:45;;;;;;;22.63;4.25;;;12.30;99.90;;;;;;5093307;28;20406;-74
2021/11/01 00:49:10;;;;;;;24.63;3.97;;;12.30;99.90;;;;;;5081324;28;20469;-74
2021/11/01 00:51:39;;;;;;;24.25;4.18;;;12.30;99.90;;;;;;5090643;28;20500;-75
2021/11/01 00:54:07;;;;;;;21.52;3.85;;;12.30;99.90;;;;;;5078028;28;20501;-76
2021/11/01 00:56:33;;;;;;;24.38;3.92;;;12.20;99.90;;;;;;5088579;28;20426;-74
2021/11/01 00:58:59;;;;;;;18.60;3.40;;;12.20;99.90;;;;;;5086492;28;20416;-74
2021/11/01 01:01:24;;;;;;;18.27;3.60;;;12.20;99.90;;;;;;5068243;28;20849;-74
2021/11/01 01:03:50;;;;;;;21.00;3.33;;;12.10;99.90;;;;;;5093497;28;20437;-74
2021/11/01 01:06:17;;;;;;;19.70;3.33;;;12.10;99.90;;;;;;5095914;28;20409;-74
2021/11/01 01:08:42;;;;;;;22.17;3.88;;;12.10;99.90;;;;;;5069822;28;20394;-75
2021/11/01 01:11:09;;;;;;;19.00;3.60;;;12.10;99.90;;;;;;5068227;28;20514;-74
2021/11/01 01:13:38;;;;;;;20.05;3.30;;;12.00;99.90;;;;;;5090639;28;20477;-74
2021/11/01 01:18:37;;;;;;;23.67;4.20;;;12.00;99.90;;;;;;5094028;28;20496;-74
2021/11/01 01:23:49;;;;;;;18.02;3.20;;;12.00;99.90;;;;;;5070109;28;20410;-75
2021/11/01 01:26:16;;;;;;;24.05;3.42;;;12.00;99.90;;;;;;5109090;27;20737;-77
2021/11/01 01:28:42;;;;;;;21.42;3.25;;;11.90;99.90;;;;;;5097677;28;20426;-76
2021/11/01 01:31:08;;;;;;;20.40;3.30;;;11.90;99.90;;;;;;5087083;28;20466;-76
2021/11/01 01:33:34;;;;;;;18.77;3.53;;;11.90;99.90;;;;;;5115046;27;20396;-75
2021/11/01 01:36:00;;;;;;;20.77;3.37;;;11.90;99.90;;;;;;5070494;28;20484;-75
2021/11/01 01:38:26;;;;;;;25.00;3.55;;;11.90;99.90;;;;;;5101589;28;20417;-74
2021/11/01 01:40:54;;;;;;;22.08;3.20;;;11.90;99.90;;;;;;5084623;28;20432;-74
2021/11/01 01:43:20;;;;;;;14.47;3.00;;;11.90;99.90;;;;;;5087158;28;20417;-74
2021/11/01 01:45:46;;;;;;;18.60;3.13;;;11.90;99.90;;;;;;5074833;28;20957;-75
2021/11/01 01:48:13;;;;;;;21.58;3.47;;;11.90;99.90;;;;;;5054013;28;20420;-74
2021/11/01 01:50:39;;;;;;;18.58;3.38;;;11.90;99.90;;;;;;5090551;28;20957;-74
2021/11/01 01:53:05;;;;;;;19.70;3.20;;;11.90;99.90;;;;;;5095254;28;20404;-74
2021/11/01 01:55:31;;;;;;;16.73;3.10;;;11.80;99.90;;;;;;5085601;28;20416;-74
2021/11/01 01:57:57;;;;;;;15.13;2.55;;;11.80;99.90;;;;;;5092338;28;21203;-74
2021/11/01 02:02:55;;;;;;;18.75;2.70;;;11.80;99.90;;;;;;5086160;28;20410;-75
2021/11/01 02:05:21;;;;;;;15.40;2.80;;;11.70;99.90;;;;;;5088257;28;20437;-73
2021/11/01 02:07:54;;;;;;;22.42;2.80;;;11.80;99.90;;;;;;5077052;28;20460;-74
2021/11/01 02:10:25;;;;;;;19.23;3.20;;;11.70;99.90;;;;;;5086565;28;20737;-74
2021/11/01 02:12:57;;;;;;;17.90;2.60;;;11.70;99.90;;;;;;5089539;28;20913;-76
2021/11/01 02:15:37;;;;;;;17.27;2.92;;;11.70;99.90;;;;;;5084821;28;20430;-74
2021/11/01 02:18:05;;;;;;;20.45;3.25;;;11.70;99.90;;;;;;5085467;28;20417;-74
2021/11/01 02:20:35;;;;;;;14.20;2.65;;;11.70;99.90;;;;;;5085401;28;20440;-74
2021/11/01 02:23:21;;;;;;;17.50;3.20;;;11.60;99.90;;;;;;5086933;28;20432;-75
2021/11/01 02:25:53;;;;;;;17.77;3.10;;;11.70;99.90;;;;;;5078612;28;20420;-74
2021/11/01 02:28:34;;;;;;;13.15;2.60;;;11.70;99.90;;;;;;5085502;28;20409;-74
2021/11/01 02:31:01;;;;;;;14.32;2.60;;;11.60;99.90;;;;;;5085441;28;20424;-74
2021/11/01 02:33:28;;;;;;;17.77;2.92;;;11.60;99.90;;;;;;5070007;28;20906;-73
2021/11/01 02:35:54;;;;;;;18.60;3.03;;;11.60;99.90;;;;;;5081534;28;21020;-73
2021/11/01 02:38:23;;;;;;;15.43;2.72;;;11.60;99.90;;;;;;5085633;28;20417;-75
2021/11/01 02:40:51;;;;;;;15.93;2.95;;;11.60;99.90;;;;;;5075176;28;20447;-75
2021/11/01 02:43:17;;;;;;;17.15;2.75;;;11.60;99.90;;;;;;5065757;28;20418;-76
2021/11/01 02:45:43;;;;;;;16.80;2.87;;;11.60;99.90;;;;;;5088914;28;20405;-75
2021/11/01 02:48:09;;;;;;;18.27;2.72;;;11.60;99.90;;;;;;5077303;28;20558;-75
2021/11/01 02:50:35;;;;;;;17.00;2.70;;;11.60;99.90;;;;;;5081870;28;20415;-75
2021/11/01 02:53:02;;;;;;;17.00;2.75;;;11.60;99.90;;;;;;5071620;28;20459;-75
2021/11/01 02:55:28;;;;;;;12.07;2.30;;;11.60;99.90;;;;;;5087319;28;20416;-75
2021/11/01 02:57:54;;;;;;;11.80;2.40;;;11.50;99.90;;;;;;5079007;28;20394;-75
2021/11/01 03:00:24;;;;;;;15.35;2.50;;;11.60;99.90;;;;;;5090975;28;20490;-75
2021/11/01 03:02:51;;;;;;;15.80;2.75;;;11.50;99.90;;;;;;5094034;28;20433;-76
2021/11/01 03:05:20;;;;;;;13.05;2.60;;;11.60;99.90;;;;;;5073423;28;20408;-77
2021/11/01 03:07:48;;;;;;;16.17;2.80;;;11.60;99.90;;;;;;5056441;28;20969;-75
2021/11/01 03:10:15;;;;;;;13.90;2.38;;;11.60;99.90;;;;;;5060236;28;20396;-75
2021/11/01 03:12:44;;;;;;;15.35;2.40;;;11.60;99.90;;;;;;5093393;28;20405;-75
2021/11/01 03:15:12;;;;;;;14.30;2.20;;;11.60;99.90;;;;;;5076597;28;20433;-75
2021/11/01 03:17:40;;;;;;;10.90;2.15;;;11.70;99.90;;;;;;5082124;28;20419;-75
2021/11/01 03:20:12;;;;;;;13.65;2.30;;;11.70;99.90;;;;;;5074851;28;20441;-74
2021/11/01 03:22:42;;;;;;;12.43;2.40;;;11.70;99.90;;;;;;5081556;28;20416;-74
2021/11/01 03:25:18;;;;;;;15.23;2.28;;;11.70;99.90;;;;;;5088043;28;20417;-74
2021/11/01 03:27:48;;;;;;;13.45;2.38;;;11.70;99.90;;;;;;5080132;28;20501;-74
2021/11/01 03:30:15;;;;;;;14.02;2.35;;;11.70;99.90;;;;;;5059764;28;20448;-74
2021/11/01 03:32:42;;;;;;;11.15;1.90;;;11.80;99.90;;;;;;5088738;28;20458;-74
2021/11/01 03:35:08;;;;;;;12.90;2.03;;;11.80;99.90;;;;;;5074909;28;20520;-75
2021/11/01 03:37:36;;;;;;;13.18;2.15;;;11.80;99.90;;;;;;5058908;28;20413;-74
2021/11/01 03:40:03;;;;;;;12.70;2.30;;;11.80;99.90;;;;;;5092013;28;20505;-76
2021/11/01 03:42:29;;;;;;;13.25;2.10;;;11.80;99.90;;;;;;5093173;28;20821;-74
2021/11/01 03:45:08;;;;;;;8.68;1.92;;;11.70;99.90;;;;;;5059394;28;20485;-74
2021/11/01 03:47:38;;;;;;;11.60;2.00;;;11.70;99.90;;;;;;5097826;28;20406;-74
2021/11/01 03:50:15;;;;;;;13.27;2.25;;;11.70;99.90;;;;;;5090783;28;20409;-75
2021/11/01 03:52:42;;;;;;;13.27;2.42;;;11.70;99.90;;;;;;5083185;28;20419;-74
2021/11/01 03:55:09;;;;;;;7.93;1.92;;;11.70;99.90;;;;;;5073526;28;20413;-74
2021/11/01 03:57:35;;;;;;;14.48;2.17;;;11.70;99.90;;;;;;5094962;28;20412;-74
2021/11/01 04:00:05;;;;;;;12.13;2.03;;;11.60;99.90;;;;;;5069149;28;20421;-73
2021/11/01 04:02:34;;;;;;;10.85;2.03;;;11.60;99.90;;;;;;5072367;28;20519;-73
2021/11/01 04:05:01;;;;;;;9.80;2.13;;;11.60;99.90;;;;;;5101027;28;20757;-73
2021/11/01 04:07:26;;;;;;;9.80;2.23;;;11.50;99.90;;;;;;5069756;28;20452;-73
2021/11/01 04:09:54;;;;;;;10.88;2.05;;;11.50;99.90;;;;;;5067571;28;20444;-73
2021/11/01 04:12:19;;;;;;;8.85;2.08;;;11.50;99.90;;;;;;5071847;28;20416;-71
2021/11/01 04:14:49;;;;;;;13.95;2.17;;;11.50;99.90;;;;;;5085856;28;20488;-73
2021/11/01 04:17:25;;;;;;;12.73;2.13;;;11.50;99.90;;;;;;5084322;28;20490;-73
2021/11/01 04:19:57;;;;;;;13.57;2.30;;;11.50;99.90;;;;;;5092784;28;20434;-72
2021/11/01 04:22:24;;;;;;;12.88;2.28;;;11.50;99.90;;;;;;5087853;28;20413;-72
2021/11/01 04:24:50;;;;;;;13.03;2.30;;;11.50;99.90;;;;;;5084740;28;20418;-73
2021/11/01 04:27:17;;;;;;;11.13;2.28;;;11.60;99.90;;;;;;5077054;28;20416;-73
2021/11/01 04:29:43;;;;;;;11.77;2.23;;;11.60;99.90;;;;;;5071245;28;20419;-73
2021/11/01 04:32:53;;;;;;;11.13;2.05;;;11.60;99.90;;;;;;5087161;28;20408;-72
2021/11/01 04:35:11;;;;;;;15.00;2.70;;;11.60;99.90;;;;;;5079420;28;20420;-72
2021/11/01 04:37:38;;;;;;;13.55;2.47;;;11.60;99.90;;;;;;5072972;28;20436;-73
2021/11/01 04:40:34;;;;;;;13.65;2.20;;;11.50;99.90;;;;;;5086698;28;20418;-73
2021/11/01 04:53:28;;;;;;;12.87;2.63;;;11.40;99.90;;;;;;5092393;28;20451;-75
2021/11/01 04:55:55;;;;;;;14.40;2.50;;;11.40;99.90;;;;;;5092712;28;20409;-75
2021/11/01 04:58:23;;;;;;;16.87;2.80;;;11.30;99.90;;;;;;5084376;28;20424;-74
2021/11/01 05:00:49;;;;;;;13.80;2.53;;;11.30;99.90;;;;;;5080766;28;20409;-74
2021/11/01 05:05:48;;;;;;;14.77;2.40;;;11.30;99.90;;;;;;5083380;28;20409;-73
2021/11/01 05:08:15;;;;;;;19.60;3.20;;;11.30;99.90;;;;;;5069279;28;20766;-73
2021/11/01 05:10:44;;;;;;;16.00;3.10;;;11.30;99.90;;;;;;5102512;28;20448;-73
2021/11/01 05:13:24;;;;;;;15.13;2.80;;;11.30;99.90;;;;;;5069474;28;20413;-73
2021/11/01 05:15:56;;;;;;;15.10;2.70;;;11.30;99.90;;;;;;5085911;28;20401;-73
2021/11/01 05:20:54;;;;;;;13.73;3.20;;;11.30;99.90;;;;;;5069091;28;20394;-72
2021/11/01 05:25:51;;;;;;;19.65;3.35;;;11.30;99.90;;;;;;5084324;28;20409;-75
2021/11/01 05:29:05;;;;;;;15.20;2.72;;;11.30;99.90;;;;;;5101949;28;20413;-75
2021/11/01 05:31:08;;;;;;;15.17;2.70;;;11.30;99.90;;;;;;5078954;28;20487;-74
2021/11/01 05:33:51;;;;;;;11.50;2.58;;;11.40;99.90;;;;;;5086748;28;21148;-75
2021/11/01 05:36:18;;;;;;;12.95;2.58;;;11.40;99.90;;;;;;5084189;28;20453;-75
2021/11/01 05:38:43;;;;;;;20.83;3.15;;;11.30;99.90;;;;;;5086093;28;21215;-75
2021/11/01 05:41:09;;;;;;;17.03;2.60;;;11.40;99.90;;;;;;5083764;28;20406;-75
2021/11/01 05:43:36;;;;;;;15.43;2.50;;;11.40;99.90;;;;;;5086309;28;20434;-74
2021/11/01 05:46:03;;;;;;;13.52;2.35;;;11.40;99.90;;;;;;5067688;28;20413;-73
2021/11/01 05:48:29;;;;;;;18.55;2.85;;;11.40;99.90;;;;;;5085842;28;20844;-73
2021/11/01 05:50:55;;;;;;;13.97;2.37;;;11.40;99.90;;;;;;5085799;28;20426;-75
2021/11/01 05:53:23;;;;;;;13.82;2.97;;;11.40;99.90;;;;;;5091030;28;20492;-78
2021/11/01 05:56:12;;;;;;;17.90;2.95;;;11.40;99.90;;;;;;5055940;28;20409;-77
2021/11/01 06:02:16;;;;;;;14.50;2.37;;;11.50;99.90;;;;;;5073778;28;20400;-77
2021/11/01 06:04:31;;;;;;;16.33;2.70;;;11.40;99.90;;;;;;5087583;28;20419;-77
2021/11/01 06:14:33;;;;;;;15.38;2.50;;;11.10;99.90;;;;;;5095307;28;20415;-76
2021/11/01 06:16:58;;;;;;;15.93;2.67;;;11.00;99.90;;;;;;5094649;28;20453;-75
2021/11/01 06:19:25;;;;;;;12.45;2.55;;;10.90;99.90;;;;;;5068556;28;20486;-76
2021/11/01 06:21:51;;;;;;;12.63;2.20;;;11.00;99.90;;;;;;5088439;28;20456;-76
2021/11/01 06:27:02;;;;;;;17.87;3.00;;;11.00;99.90;;;;;;5087871;28;20433;-79
2021/11/01 06:29:35;;;;;;;16.23;3.03;;;10.90;99.90;;;;;;5092921;28;20437;-77
2021/11/01 06:32:25;;;;;;;16.38;3.47;;;10.90;99.90;;;;;;5093789;28;20474;-76
2021/11/01 06:40:35;;;;;;;17.87;3.07;;;11.00;99.90;;;;;;5102532;28;20414;-77
2021/11/01 06:45:31;;;;;;;15.73;2.93;;;11.00;99.90;;;;;;5100323;28;20511;-75
2021/11/01 06:56:14;;;;;;;13.27;2.67;;;10.90;99.90;;;;;;5090212;28;21094;-76
2021/11/01 06:58:47;;;;;;;13.40;2.63;;;10.90;99.90;;;;;;5076291;28;20409;-73
2021/11/01 07:15:08;;;;;;;15.82;2.40;;;11.00;99.90;;;;;;5086369;28;20843;-76
2021/11/01 07:20:28;;;;;;;14.02;2.60;;;11.10;99.90;;;;;;5087975;28;20416;-75
2021/11/01 08:23:20;;;;;;;6.93;1.58;;;16.20;93.00;;;;;;5096052;28;20185;-78
2021/11/01 08:28:49;;;;;;;9.25;1.88;;;17.30;91.00;;;;;;5083272;28;20907;-73
2021/11/01 09:04:00;;;;;;;7.95;1.95;;;22.20;58.00;;;;;;5074179;28;20463;-75
2021/11/01 09:20:16;;;;;;;8.80;2.15;;;22.20;56.20;;;;;;5098377;28;20425;-77
2021/11/01 09:23:03;;;;;;;;;;;;;;;;;;;;;
2021/11/01 09:27:38;;;;;;;6.70;1.67;;;22.80;54.90;;;;;;5094104;28;20419;-74
2021/11/01 09:38:12;;;;;;;8.20;1.58;;;23.00;53.40;;;;;;5089390;28;20505;-75
2021/11/01 09:41:01;;;;;;;7.88;1.63;;;23.30;52.80;;;;;;5110203;27;20414;-75
2021/11/01 09:43:27;;;;;;;5.07;1.50;;;23.40;50.70;;;;;;5100511;28;20487;-74
2021/11/01 09:45:58;;;;;;;5.57;1.55;;;23.50;50.40;;;;;;5093083;28;20417;-73
2021/11/01 09:48:24;;;;;;;4.95;1.50;;;23.50;51.50;;;;;;5080860;28;22083;-74
2021/11/01 09:50:51;;;;;;;6.43;1.63;;;23.80;50.10;;;;;;5092006;28;20499;-73
2021/11/01 09:53:24;;;;;;;6.22;1.42;;;23.80;49.50;;;;;;5091866;28;20453;-74
2021/11/01 10:01:12;;;;;;;5.30;1.40;;;23.70;48.10;;;;;;5085575;28;20870;-75
2021/11/01 10:03:44;;;;;;;7.93;1.55;;;23.50;48.50;;;;;;5074110;28;20411;-76
2021/11/01 10:06:18;;;;;;;6.03;1.50;;;23.40;49.40;;;;;;5090571;28;20458;-76
2021/11/01 10:08:55;;;;;;;7.22;1.50;;;23.40;49.20;;;;;;5087840;28;20406;-76
2021/11/01 10:11:47;;;;;;;5.30;1.33;;;23.50;49.20;;;;;;5078983;28;20410;-75
2021/11/01 10:14:13;;;;;;;4.63;1.20;;;23.70;49.00;;;;;;5060875;28;20503;-76
2021/11/01 10:19:33;;;;;;;5.03;1.20;;;24.10;47.30;;;;;;5088396;28;20404;-76
2021/11/01 10:22:20;;;;;;;5.25;1.20;;;24.10;46.60;;;;;;5093743;28;20413;-76
2021/11/01 10:24:45;;;;;;;7.25;1.33;;;23.90;46.60;;;;;;5081738;28;20427;-75
2021/11/01 10:27:14;;;;;;;3.63;0.90;;;23.60;47.40;;;;;;5102294;28;20403;-75
2021/11/01 10:29:52;;;;;;;5.50;1.10;;;23.20;46.80;;;;;;5069666;28;20505;-75
2021/11/01 10:32:31;;;;;;;6.50;1.10;;;22.40;49.10;;;;;;5106993;28;20459;-75
2021/11/01 10:35:09;;;;;;;6.50;1.20;;;21.90;50.50;;;;;;5083027;28;20409;-76
2021/11/01 10:37:36;;;;;;;5.77;1.10;;;21.40;51.70;;;;;;5071154;28;20410;-75
2021/11/01 10:40:08;;;;;;;3.10;1.00;;;21.20;53.90;;;;;;5087564;28;20442;-76
2021/11/01 10:42:49;;;;;;;4.93;1.30;;;21.50;52.90;;;;;;5074847;28;21057;-77
2021/11/01 11:10:51;;;;;;;4.17;0.83;;;23.10;48.30;;;;;;5073949;28;20415;-74
2021/11/01 11:13:00;;;;;;;6.13;1.10;;;23.40;46.80;;;;;;5091621;28;20483;-76
2021/11/01 11:15:26;;;;;;;4.70;1.02;;;23.40;46.50;;;;;;5090674;28;20432;-75
2021/11/01 11:18:13;;;;;;;5.07;1.15;;;23.50;47.50;;;;;;5071864;28;20423;-77
2021/11/01 11:29:25;;;;;;;5.20;1.17;;;23.90;45.80;;;;;;5076812;28;20413;-75
2021/11/01 11:32:13;;;;;;;3.50;0.80;;;23.90;45.70;;;;;;5073235;28;23163;-76
2021/11/01 11:43:18;;;;;;;6.15;1.17;;;23.40;46.30;;;;;;5074862;28;20419;-74
2021/11/01 11:48:36;;;;;;;5.90;1.13;;;23.30;47.40;;;;;;5084972;28;20405;-73
2021/11/01 11:51:07;;;;;;;5.27;1.10;;;23.30;47.10;;;;;;5084034;28;20437;-74
2021/11/01 11:53:33;;;;;;;6.55;1.15;;;23.30;47.20;;;;;;5072072;28;20628;-74
2021/11/01 11:56:10;;;;;;;6.15;1.10;;;23.40;46.50;;;;;;5068581;28;20414;-75
2021/11/01 11:58:40;;;;;;;5.47;1.02;;;23.20;46.70;;;;;;5089367;28;20418;-75
2021/11/01 12:01:30;;;;;;;2.97;0.90;;;23.10;47.20;;;;;;5100650;28;20496;-75
2021/11/01 12:04:05;;;;;;;3.72;0.98;;;23.20;47.50;;;;;;5097514;28;20423;-76
2021/11/01 12:06:51;;;;;;;4.67;0.90;;;23.40;47.30;;;;;;5096588;28;20484;-74
2021/11/01 12:09:22;;;;;;;5.43;1.00;;;23.50;47.10;;;;;;5098686;28;20396;-74
2021/11/01 12:14:38;;;;;;;4.75;0.90;;;22.90;46.00;;;;;;5089892;28;20829;-74
2021/11/01 12:17:09;;;;;;;3.83;0.90;;;22.60;47.10;;;;;;5099540;28;20418;-74
2021/11/01 12:19:36;;;;;;;3.47;0.90;;;22.40;47.60;;;;;;5096387;28;20404;-74
2021/11/01 12:22:13;;;;;;;3.95;1.10;;;22.20;47.50;;;;;;5077984;28;20423;-74
2021/11/01 12:24:48;;;;;;;3.88;0.90;;;21.80;48.30;;;;;;5101820;28;20469;-73
2021/11/01 12:27:16;;;;;;;6.28;1.10;;;21.50;49.80;;;;;;5074724;28;20390;-74
2021/11/01 12:29:43;;;;;;;5.43;1.13;;;21.20;49.50;;;;;;5073913;28;20987;-75
2021/11/01 12:32:13;;;;;;;6.93;1.00;;;21.10;50.70;;;;;;5087462;28;20477;-75
2021/11/01 12:35:09;;;;;;;5.15;1.10;;;21.20;50.70;;;;;;5084568;28;20412;-75
2021/11/01 12:37:41;;;;;;;5.65;1.13;;;21.30;51.00;;;;;;5090697;28;20828;-75
2021/11/01 12:59:40;;;;;;;4.10;1.10;;;20.20;54.40;;;;;;5115119;27;20758;-74
2021/11/01 13:02:09;;;;;;;4.80;1.15;;;20.10;55.10;;;;;;5105015;27;20420;-73
2021/11/01 13:04:43;;;;;;;5.38;1.10;;;19.90;55.60;;;;;;5061352;28;20482;-75
2021/11/01 13:07:35;;;;;;;4.90;0.90;;;19.80;57.60;;;;;;5098306;28;20847;-76
2021/11/01 13:10:15;;;;;;;4.90;1.00;;;19.80;56.60;;;;;;5089573;28;20459;-74
2021/11/01 13:12:58;;;;;;;4.55;1.00;;;19.70;56.20;;;;;;5097354;28;21219;-73
2021/11/01 13:18:10;;;;;;;6.05;1.00;;;19.60;56.80;;;;;;5093567;28;20413;-75
2021/11/01 13:20:46;;;;;;;4.30;1.08;;;19.40;57.60;;;;;;5085006;28;20492;-75
2021/11/01 13:23:12;;;;;;;5.55;1.00;;;19.10;58.60;;;;;;5097966;28;20410;-75
2021/11/01 13:28:33;;;;;;;5.93;0.95;;;18.90;59.60;;;;;;5087377;28;20414;-74
2021/11/01 13:37:07;;;;;;;6.77;1.03;;;18.40;62.00;;;;;;5070278;28;20422;-73
2021/11/01 13:39:34;;;;;;;6.32;0.90;;;18.20;61.50;;;;;;5088509;28;20500;-74
2021/11/01 13:41:59;;;;;;;4.28;1.00;;;18.00;62.20;;;;;;5073532;28;20415;-76
2021/11/01 13:44:27;;;;;;;5.50;1.00;;;17.90;64.60;;;;;;5070405;28;20418;-76
2021/11/01 13:47:00;;;;;;;3.58;1.10;;;17.80;65.10;;;;;;5094962;28;20404;-76
2021/11/01 13:49:38;;;;;;;5.15;1.20;;;17.70;64.80;;;;;;5093272;28;20888;-73
2021/11/01 13:55:11;;;;;;;3.97;1.10;;;17.50;67.70;;;;;;5090897;28;20482;-68
2021/11/01 13:57:56;;;;;;;6.63;1.43;;;17.30;68.20;;;;;;5087970;28;20402;-73
2021/11/01 14:01:25;;;;;;;6.93;1.33;;;17.10;70.00;;;;;;5087413;28;20911;-72
2021/11/01 14:03:41;;;;;;;5.23;1.27;;;17.10;70.90;;;;;;5081232;28;20501;-71
2021/11/01 14:14:32;;;;;;;5.97;1.45;;;16.80;72.60;;;;;;5085261;28;20499;-73
2021/11/01 14:17:27;;;;;;;6.07;1.50;;;16.70;73.40;;;;;;5086330;28;20406;-71
2021/11/01 14:36:10;;;;;;;5.10;1.20;;;16.60;73.70;;;;;;5096698;28;20406;-74
2021/11/01 15:11:42;;;;;;;5.47;1.13;;;16.10;73.00;;;;;;5089431;28;20455;-73
2021/11/01 15:21:57;;;;;;;5.65;0.90;;;15.90;74.70;;;;;;5096320;28;21093;-76
2021/11/01 16:18:16;;;;;;;2.10;0.80;;;14.60;80.10;;;;;;5083544;28;20475;-73
2021/11/01 16:20:47;;;;;;;2.07;0.80;;;14.50;80.70;;;;;;5098508;28;20408;-75
2021/11/01 16:25:39;;;;;;;3.05;0.80;;;14.40;82.00;;;;;;5100149;28;20402;-77
2021/11/01 16:28:06;;;;;;;4.68;1.00;;;14.30;82.50;;;;;;5071209;28;20409;-76
2021/11/01 16:30:33;;;;;;;2.45;0.68;;;14.30;83.10;;;;;;5086662;28;21237;-76
2021/11/01 16:33:02;;;;;;;4.00;0.88;;;14.30;83.50;;;;;;5055649;28;20417;-76
2021/11/01 16:35:36;;;;;;;3.07;1.20;;;14.20;84.00;;;;;;5075302;28;20401;-74
2021/11/01 16:40:31;;;;;;;4.07;1.20;;;14.00;85.40;;;;;;5091406;28;20477;-73
2021/11/01 16:42:58;;;;;;;2.95;0.80;;;14.00;86.20;;;;;;5091997;28;20467;-75
2021/11/01 16:45:32;;;;;;;3.08;1.00;;;14.00;87.40;;;;;;5114509;27;20457;-74
2021/11/01 16:47:59;;;;;;;3.92;0.80;;;13.90;87.40;;;;;;5063565;28;20409;-74
2021/11/01 16:50:25;;;;;;;4.22;0.90;;;13.90;87.50;;;;;;5088277;28;20906;-73
2021/11/01 16:52:52;;;;;;;2.33;0.95;;;13.80;88.00;;;;;;5088192;28;20493;-74
2021/11/01 16:55:21;;;;;;;4.00;0.98;;;13.80;88.30;;;;;;5069297;28;20412;-73
2021/11/01 16:58:02;;;;;;;3.17;0.90;;;13.70;89.40;;;;;;5072027;28;20445;-73
2021/11/01 17:00:32;;;;;;;3.38;1.02;;;13.70;89.90;;;;;;5075274;28;20937;-73
2021/11/01 17:24:50;;;;;;;2.22;0.95;;;13.30;91.30;;;;;;5090685;28;20494;-74
2021/11/01 18:24:05;;;;;;;4.45;1.08;;;13.10;91.90;;;;;;5073981;28;20440;-75
2021/11/01 18:51:30;;;;;;;6.57;2.05;;;12.20;95.60;;;;;;5084459;28;20497;-77
2021/11/01 18:54:16;;;;;;;7.05;2.20;;;12.20;95.80;;;;;;5082327;28;20410;-72
2021/11/01 18:56:42;;;;;;;4.80;2.40;;;12.20;96.10;;;;;;5083381;28;20922;-76
2021/11/01 18:59:08;;;;;;;4.80;2.00;;;12.20;96.10;;;;;;5077962;28;20418;-75
2021/11/01 19:01:38;;;;;;;4.15;2.55;;;12.10;96.30;;;;;;5090839;28;20398;-76
2021/11/01 19:04:10;;;;;;;4.78;2.58;;;12.10;96.40;;;;;;5071363;28;20481;-75
2021/11/01 19:07:42;;;;;;;8.33;3.60;;;12.00;96.70;;;;;;5090956;28;21104;-76
2021/11/01 20:04:48;;;;;;;7.38;4.28;;;11.50;99.20;;;;;;5086787;28;20422;-74
2021/11/01 21:25:15;;;;;;;8.50;4.30;;;11.10;99.90;;;;;;5089709;28;20422;-76
2021/11/01 21:27:42;;;;;;;7.68;3.97;;;11.00;99.90;;;;;;5107589;27;20927;-76
2021/11/01 21:30:10;;;;;;;9.30;4.85;;;11.00;99.90;;;;;;5088899;28;20454;-76
2021/11/01 21:32:36;;;;;;;8.10;4.72;;;11.10;99.90;;;;;;5075088;28;20410;-75
2021/11/01 21:35:04;;;;;;;7.72;4.28;;;11.10;99.90;;;;;;5092896;28;20464;-76
2021/11/01 21:37:31;;;;;;;8.20;4.33;;;11.10;99.80;;;;;;5091098;28;20459;-76
2021/11/01 21:39:59;;;;;;;8.02;4.15;;;11.10;99.90;;;;;;5093802;28;20414;-77
2021/11/01 21:42:25;;;;;;;7.57;4.07;;;11.00;99.80;;;;;;5096815;28;21180;-77
2021/11/01 21:44:52;;;;;;;8.80;4.50;;;11.00;99.90;;;;;;5108143;27;20804;-77
2021/11/01 21:47:19;;;;;;;7.65;4.18;;;11.00;99.90;;;;;;5093736;28;20452;-76
2021/11/01 21:49:46;;;;;;;8.80;4.10;;;11.00;99.90;;;;;;5071866;28;20414;-76
2021/11/01 21:52:15;;;;;;;10.50;4.20;;;11.00;99.90;;;;;;5093056;28;20409;-76
2021/11/01 21:57:14;;;;;;;7.55;4.10;;;11.00;99.90;;;;;;5093425;28;20516;-76
2021/11/01 22:22:06;;;;;;;8.57;4.75;;;10.90;99.90;;;;;;5055863;28;20859;-76
2021/11/01 22:32:32;;;;;;;8.32;4.72;;;10.70;99.90;;;;;;5041665;28;20753;-75
2021/11/01 22:48:44;;;;;;;9.80;4.85;;;10.50;99.90;;;;;;5051787;28;20416;-76
2021/11/01 22:56:47;;;;;;;7.05;4.57;;;10.50;99.90;;;;;;5045360;28;20419;-75
2021/11/01 22:59:15;;;;;;;8.65;4.95;;;10.40;99.90;;;;;;5050292;28;20523;-75
2021/11/01 23:01:42;;;;;;;9.05;5.00;;;10.40;99.90;;;;;;5051199;28;20416;-75
2021/11/01 23:31:35;;;;;;;9.48;5.68;;;10.20;99.90;;;;;;5060173;28;20815;-75
2021/11/01 23:34:19;;;;;;;10.10;5.53;;;10.10;99.90;;;;;;5063246;28;21263;-75
2021/11/01 23:36:45;;;;;;;10.02;5.80;;;10.10;99.90;;;;;;5063278;28;20474;-76
2021/11/01 23:39:12;;;;;;;10.43;5.73;;;10.10;99.90;;;;;;5066636;28;20416;-76
2021/11/01 23:41:43;;;;;;;11.10;5.95;;;10.10;99.90;;;;;;5062053;28;20422;-76
2021/11/01 23:44:09;;;;;;;10.90;5.88;;;10.10;99.90;;;;;;5059808;28;20420;-75
2021/11/01 23:46:34;;;;;;;11.20;6.00;;;10.10;99.90;;;;;;5056510;28;20772;-75
2021/11/01 23:49:00;;;;;;;10.17;6.30;;;10.00;99.90;;;;;;5060942;28;20435;-75
2021/11/01 23:51:35;;;;;;;10.93;6.47;;;10.10;99.90;;;;;;5065077;28;20495;-75
2021/11/01 23:56:37;;;;;;;11.88;6.50;;;10.10;99.90;;;;;;5056198;28;20538;-77
2021/11/01 23:59:03;;;;;;;11.40;6.95;;;10.00;99.90;;;;;;5063406;28;20411;-76
